Time;durP1;ratioP1;P1;durP2;ratioP2;P2;SDS_P1;SDS_P2;PMS_P1;PMS_P2;Temp;Humidity;BMP_temperature;BMP_pressure;BME280_temperature;BME280_humidity;BME280_pressure;Samples;Min_cycle;Max_cycle;Signal;HPM_P1;HPM_P2
2023/12/14 00:02:07;;;;;;;12.77;4.20;;;;;;;5.82;100.00;100161.97;5046166;28;20807;-66
2023/12/14 00:04:32;;;;;;;12.53;4.50;;;;;;;5.79;100.00;100167.03;5031390;28;20037;-66
2023/12/14 00:06:57;;;;;;;9.33;3.83;;;;;;;5.80;100.00;100171.47;5046063;28;20632;-66
2023/12/14 00:09:23;;;;;;;13.47;4.40;;;;;;;5.81;100.00;100173.25;5042647;28;20045;-66
2023/12/14 00:11:48;;;;;;;11.13;4.03;;;;;;;5.81;100.00;100174.16;5026698;28;20659;-67
2023/12/14 00:14:13;;;;;;;10.20;4.30;;;;;;;5.81;100.00;100183.75;5026905;28;20300;-66
2023/12/14 00:16:39;;;;;;;10.40;3.77;;;;;;;5.84;100.00;100186.50;5026783;28;20029;-66
2023/12/14 00:19:04;;;;;;;10.90;4.57;;;;;;;5.81;100.00;100195.13;5026935;28;20042;-67
2023/12/14 00:21:30;;;;;;;13.83;4.23;;;;;;;5.77;100.00;100189.66;5042590;28;20033;-67
2023/12/14 00:23:55;;;;;;;13.60;4.72;;;;;;;5.76;100.00;100193.09;5026696;28;20037;-66
2023/12/14 00:26:20;;;;;;;15.50;5.00;;;;;;;5.73;100.00;100199.06;5026773;28;20674;-66
2023/12/14 00:28:46;;;;;;;12.27;4.67;;;;;;;5.73;100.00;100195.53;5031721;28;20108;-69
2023/12/14 00:31:11;;;;;;;11.93;4.63;;;;;;;5.77;100.00;100205.38;5036711;28;20041;-66
2023/12/14 00:33:37;;;;;;;14.00;5.00;;;;;;;5.75;100.00;100204.38;5026349;28;20037;-66
2023/12/14 00:36:02;;;;;;;15.45;4.65;;;;;;;5.77;100.00;100208.00;5026770;28;20033;-70
2023/12/14 00:38:27;;;;;;;13.90;5.07;;;;;;;5.74;100.00;100205.19;5019002;28;20030;-70
2023/12/14 00:40:53;;;;;;;14.77;4.77;;;;;;;5.73;100.00;100208.63;5013161;28;20046;-65
2023/12/14 00:43:18;;;;;;;13.27;4.60;;;;;;;5.69;100.00;100217.16;5013175;28;20042;-66
2023/12/14 00:45:44;;;;;;;12.33;4.30;;;;;;;5.65;100.00;100219.63;5012905;28;20180;-70
2023/12/14 00:50:22;;;;;;;15.45;4.93;;;;;;;5.57;100.00;100222.69;5070388;27;20796;-66
2023/12/14 00:52:48;;;;;;;15.43;5.60;;;;;;;5.55;100.00;100227.84;5067804;28;20115;-68
2023/12/14 00:55:13;;;;;;;14.90;5.35;;;;;;;5.53;100.00;100229.47;5067337;28;20040;-66
2023/12/14 00:57:39;;;;;;;15.07;5.87;;;;;;;5.53;100.00;100245.19;5070388;28;20111;-67
2023/12/14 01:00:04;;;;;;;17.30;6.43;;;;;;;5.56;100.00;100247.06;5071152;28;20083;-68
2023/12/14 01:02:30;;;;;;;18.33;6.22;;;;;;;5.56;100.00;100255.84;5067067;28;20029;-65
2023/12/14 01:04:55;;;;;;;16.20;5.53;;;;;;;5.58;100.00;100255.91;5066970;28;20390;-65
2023/12/14 01:07:21;;;;;;;12.67;4.70;;;;;;;5.60;100.00;100265.66;5066728;28;20067;-65
2023/12/14 01:09:46;;;;;;;16.90;5.90;;;;;;;5.57;100.00;100262.88;5066269;28;20113;-66
2023/12/14 01:12:11;;;;;;;16.52;5.97;;;;;;;5.55;100.00;100267.13;5066895;28;20033;-65
2023/12/14 01:14:37;;;;;;;15.80;6.50;;;;;;;5.57;100.00;100275.97;5066532;28;20100;-64
2023/12/14 01:17:02;;;;;;;12.93;4.57;;;;;;;5.56;100.00;100274.19;5066678;28;20029;-68
2023/12/14 01:19:27;;;;;;;17.10;5.83;;;;;;;5.51;100.00;100282.59;5063690;28;20048;-65
2023/12/14 01:21:55;;;;;;;12.40;4.70;;;;;;;5.49;100.00;100279.00;5066298;28;20104;-65
2023/12/14 01:24:20;;;;;;;14.87;5.40;;;;;;;5.45;100.00;100282.25;5066782;28;20921;-64
2023/12/14 01:26:45;;;;;;;14.20;5.07;;;;;;;5.43;100.00;100282.19;5066507;28;20075;-69
2023/12/14 01:29:11;;;;;;;18.27;5.70;;;;;;;5.42;100.00;100285.63;5065831;28;20387;-64
2023/12/14 01:31:36;;;;;;;15.77;5.87;;;;;;;5.41;100.00;100289.06;5066479;28;20037;-64
2023/12/14 01:34:02;;;;;;;17.33;6.27;;;;;;;5.39;100.00;100287.16;5066424;28;20075;-65
2023/12/14 01:36:27;;;;;;;13.83;6.07;;;;;;;5.43;100.00;100303.13;5066264;28;20036;-64
2023/12/14 01:38:52;;;;;;;17.30;5.63;;;;;;;5.44;100.00;100299.69;5065782;28;20377;-66
2023/12/14 01:41:18;;;;;;;16.83;5.47;;;;;;;5.44;100.00;100299.69;5066280;28;20043;-64
2023/12/14 01:43:44;;;;;;;18.50;5.40;;;;;;;5.45;100.00;100306.75;5066080;28;20037;-64
2023/12/14 01:46:10;;;;;;;13.13;4.90;;;;;;;5.44;100.00;100315.41;5065918;28;20025;-65
2023/12/14 01:48:35;;;;;;;14.18;5.72;;;;;;;5.40;100.00;100323.03;5065094;28;20523;-64
2023/12/14 01:51:01;;;;;;;13.23;5.00;;;;;;;5.35;100.00;100317.53;5066222;28;20032;-67
2023/12/14 01:53:26;;;;;;;15.93;5.43;;;;;;;5.30;100.00;100316.38;5065504;28;20170;-65
2023/12/14 01:55:52;;;;;;;10.00;3.83;;;;;;;5.27;100.00;100313.63;5066145;28;20048;-67
2023/12/14 01:58:17;;;;;;;11.30;3.67;;;;;;;5.20;100.00;100311.47;5072328;28;20050;-66
2023/12/14 02:01:08;;;;;;;10.90;4.07;;;;;;;5.19;100.00;100322.75;5060624;28;20123;-67
2023/12/14 02:03:34;;;;;;;8.80;3.67;;;;;;;5.15;100.00;100324.28;5045879;28;20447;-66
2023/12/14 02:06:00;;;;;;;13.63;3.93;;;;;;;5.12;100.00;100328.47;5053019;28;20116;-65
2023/12/14 02:08:27;;;;;;;12.52;4.82;;;;;;;5.10;100.00;100324.84;5052211;28;20044;-67
2023/12/14 02:10:52;;;;;;;11.32;4.10;;;;;;;5.06;100.00;100330.75;5052132;28;20044;-65
2023/12/14 02:13:17;;;;;;;11.43;4.70;;;;;;;5.02;100.00;100339.25;5052496;28;20116;-65
2023/12/14 02:15:43;;;;;;;12.63;4.30;;;;;;;4.97;100.00;100338.06;5052362;28;20112;-64
2023/12/14 02:18:08;;;;;;;15.10;4.27;;;;;;;4.93;100.00;100346.56;5051492;28;20040;-67
2023/12/14 02:20:33;;;;;;;11.85;3.80;;;;;;;4.92;100.00;100347.38;5051666;28;20055;-65
2023/12/14 02:22:59;;;;;;;10.03;4.07;;;;;;;4.88;100.00;100341.09;5052442;28;20503;-65
2023/12/14 02:25:24;;;;;;;9.57;3.33;;;;;;;4.89;100.00;100347.19;5052162;28;20037;-65
2023/12/14 02:27:51;;;;;;;8.30;3.43;;;;;;;4.88;100.00;100354.16;5052020;28;20036;-65
2023/12/14 02:30:17;;;;;;;10.60;3.85;;;;;;;4.86;100.00;100349.66;5051367;28;20127;-65
2023/12/14 02:32:42;;;;;;;8.00;2.70;;;;;;;4.83;100.00;100346.88;5052222;28;20032;-64
2023/12/14 02:35:08;;;;;;;10.77;3.70;;;;;;;4.77;100.00;100355.25;5052101;28;20032;-65
2023/12/14 02:37:37;;;;;;;11.65;3.88;;;;;;;4.77;100.00;100358.78;5051759;28;20037;-65
2023/12/14 02:40:03;;;;;;;12.90;4.30;;;;;;;4.76;100.00;100356.06;5051077;28;20017;-65
2023/12/14 02:42:29;;;;;;;7.33;2.93;;;;;;;4.77;100.00;100361.41;5051466;28;20098;-65
2023/12/14 02:44:54;;;;;;;11.38;3.85;;;;;;;4.76;100.00;100363.91;5051025;28;20385;-64
2023/12/14 02:47:19;;;;;;;10.27;3.87;;;;;;;4.76;100.00;100362.22;5051518;28;20139;-64
2023/12/14 02:49:45;;;;;;;9.57;3.37;;;;;;;4.79;100.00;100364.97;5050533;28;20139;-64
2023/12/14 02:52:10;;;;;;;10.83;3.70;;;;;;;4.78;100.00;100371.03;5051724;28;20037;-64
2023/12/14 02:54:40;;;;;;;9.32;3.33;;;;;;;4.81;100.00;100372.03;5051590;28;20108;-65
2023/12/14 02:57:05;;;;;;;9.93;3.87;;;;;;;4.79;100.00;100378.06;5051513;28;20040;-64
2023/12/14 02:59:30;;;;;;;9.95;3.92;;;;;;;4.80;100.00;100378.97;5059702;28;20032;-65
2023/12/14 03:01:56;;;;;;;9.67;3.30;;;;;;;4.79;100.00;100383.31;5051805;28;20047;-65
2023/12/14 03:04:21;;;;;;;9.00;3.13;;;;;;;4.83;100.00;100388.72;5050710;28;20119;-63
2023/12/14 03:06:47;;;;;;;10.53;3.37;;;;;;;4.79;100.00;100387.63;5050869;28;20036;-65
2023/12/14 03:09:12;;;;;;;10.48;3.55;;;;;;;4.79;100.00;100399.00;5050700;28;20033;-65
2023/12/14 03:11:37;;;;;;;11.97;3.43;;;;;;;4.79;100.00;100393.75;5050490;28;20123;-64
2023/12/14 03:14:03;;;;;;;11.53;4.37;;;;;;;4.80;100.00;100394.66;5050884;28;20200;-65
2023/12/14 03:16:28;;;;;;;8.83;2.97;;;;;;;4.79;100.00;100401.59;5051388;28;20035;-66
2023/12/14 03:18:55;;;;;;;12.20;4.73;;;;;;;4.79;100.00;100399.00;5050679;28;20291;-67
2023/12/14 03:21:20;;;;;;;10.73;4.28;;;;;;;4.79;100.00;100414.69;5050637;28;20064;-66
2023/12/14 03:23:46;;;;;;;14.17;4.17;;;;;;;4.74;100.00;100412.63;5050871;28;20481;-66
2023/12/14 03:26:11;;;;;;;11.50;4.17;;;;;;;4.72;100.00;100411.66;5051036;28;20052;-64
2023/12/14 03:28:37;;;;;;;12.90;4.05;;;;;;;4.72;100.00;100417.78;5050239;28;20037;-65
2023/12/14 03:31:03;;;;;;;13.50;3.53;;;;;;;4.68;100.00;100426.28;5050991;28;20028;-65
2023/12/14 03:33:28;;;;;;;12.38;4.88;;;;;;;4.63;100.00;100430.31;5050730;28;20059;-67
2023/12/14 03:35:53;;;;;;;12.77;4.10;;;;;;;4.64;100.00;100426.88;5050857;28;20549;-64
2023/12/14 03:38:19;;;;;;;13.77;5.27;;;;;;;4.62;100.00;100436.34;5050090;28;20049;-66
2023/12/14 03:40:44;;;;;;;7.53;2.60;;;;;;;4.67;100.00;100431.41;5050403;28;20698;-66
2023/12/14 03:43:10;;;;;;;12.82;4.53;;;;;;;4.67;100.00;100439.25;5050453;28;20072;-65
2023/12/14 03:45:35;;;;;;;13.63;4.23;;;;;;;4.70;100.00;100442.03;5050771;28;20088;-65
2023/12/14 03:48:00;;;;;;;12.47;5.13;;;;;;;4.73;100.00;100439.63;5050243;28;20033;-66
2023/12/14 03:50:26;;;;;;;14.33;5.03;;;;;;;4.74;100.00;100449.25;5049488;28;20037;-66
2023/12/14 03:52:51;;;;;;;12.97;5.10;;;;;;;4.73;100.00;100448.38;5046498;28;20078;-66
2023/12/14 03:55:16;;;;;;;13.10;4.55;;;;;;;4.72;100.00;100456.13;5050530;28;20520;-67
2023/12/14 03:57:42;;;;;;;15.40;5.40;;;;;;;4.73;100.00;100457.94;5053483;28;20121;-67
2023/12/14 04:00:10;;;;;;;14.70;5.70;;;;;;;4.73;100.00;100468.41;5058204;28;20473;-69
2023/12/14 04:02:35;;;;;;;12.43;4.82;;;;;;;4.70;100.00;100466.47;5050225;28;20094;-66
2023/12/14 04:05:01;;;;;;;11.87;4.43;;;;;;;4.74;100.00;100478.03;5050456;28;20049;-66
2023/12/14 04:07:26;;;;;;;15.17;4.70;;;;;;;4.69;100.00;100480.38;5049249;28;20116;-67
2023/12/14 04:09:52;;;;;;;10.40;4.00;;;;;;;4.71;100.00;100476.13;5049815;28;20073;-67
2023/12/14 04:12:17;;;;;;;12.07;4.07;;;;;;;4.68;100.00;100481.19;5050270;28;20041;-66
2023/12/14 04:14:43;;;;;;;13.43;5.13;;;;;;;4.66;100.00;100477.56;5050328;28;20045;-66
2023/12/14 04:17:08;;;;;;;10.67;4.73;;;;;;;4.64;100.00;100481.81;5050249;28;20040;-66
2023/12/14 04:19:33;;;;;;;16.80;5.40;;;;;;;4.65;100.00;100483.63;5050033;28;20033;-65
2023/12/14 04:21:59;;;;;;;11.93;4.50;;;;;;;4.66;100.00;100488.03;5047981;28;20119;-67
2023/12/14 04:24:24;;;;;;;13.10;4.33;;;;;;;4.69;100.00;100489.91;5049789;28;20271;-65
2023/12/14 04:26:49;;;;;;;14.30;5.40;;;;;;;4.71;100.00;100494.44;5049847;28;20124;-65
2023/12/14 04:29:15;;;;;;;14.27;4.80;;;;;;;4.72;100.00;100501.50;5049288;28;20120;-66
2023/12/14 04:31:40;;;;;;;13.97;5.00;;;;;;;4.73;100.00;100505.00;5049380;28;20074;-65
2023/12/14 04:34:11;;;;;;;13.03;4.33;;;;;;;4.76;100.00;100497.34;5049649;28;20110;-69
2023/12/14 04:36:37;;;;;;;12.63;4.43;;;;;;;4.73;100.00;100500.69;5048736;28;20291;-67
2023/12/14 04:39:02;;;;;;;12.60;4.63;;;;;;;4.73;100.00;100513.78;5048151;28;20079;-69
2023/12/14 04:41:27;;;;;;;11.90;4.90;;;;;;;4.72;100.00;100511.06;5049664;28;20044;-66
2023/12/14 04:43:53;;;;;;;14.10;4.70;;;;;;;4.74;100.00;100504.19;5049805;28;20474;-65
2023/12/14 04:46:18;;;;;;;13.63;4.80;;;;;;;4.78;100.00;100507.06;5049470;28;20025;-66
2023/12/14 04:51:11;;;;;;;11.13;4.20;;;;;;;4.72;100.00;100509.34;5107484;27;20370;-69
2023/12/14 04:53:36;;;;;;;10.98;4.40;;;;;;;4.68;100.00;100520.44;5076139;28;20036;-67
2023/12/14 04:56:01;;;;;;;14.77;3.97;;;;;;;4.67;100.00;100521.25;5087215;28;20089;-67
2023/12/14 04:58:27;;;;;;;9.90;3.90;;;;;;;4.65;100.00;100532.41;5093344;28;20030;-67
2023/12/14 05:00:53;;;;;;;11.85;4.00;;;;;;;4.67;100.00;100534.31;5109074;28;20046;-67
2023/12/14 05:03:18;;;;;;;11.80;4.10;;;;;;;4.70;100.00;100538.81;5100439;28;20040;-66
2023/12/14 05:05:43;;;;;;;10.27;3.83;;;;;;;4.71;100.00;100541.53;5107627;28;20103;-67
2023/12/14 05:10:34;;;;;;;11.75;4.28;;;;;;;4.77;100.00;100551.47;5054079;28;20927;-68
2023/12/14 05:12:59;;;;;;;10.67;3.90;;;;;;;4.74;100.00;100549.56;5047568;28;20033;-66
2023/12/14 05:15:24;;;;;;;11.60;3.53;;;;;;;4.77;100.00;100555.00;5047100;28;20112;-66
2023/12/14 05:17:50;;;;;;;12.47;3.87;;;;;;;4.77;100.00;100555.00;5047006;28;20132;-68
2023/12/14 05:20:15;;;;;;;11.87;3.50;;;;;;;4.82;100.00;100564.84;5046945;28;20170;-67
2023/12/14 05:22:40;;;;;;;14.17;4.10;;;;;;;4.79;100.00;100566.44;5046144;28;20040;-64
2023/12/14 05:25:06;;;;;;;11.47;3.70;;;;;;;4.79;100.00;100579.53;5046863;28;20132;-67
2023/12/14 05:27:31;;;;;;;14.27;3.85;;;;;;;4.80;100.00;100588.28;5046865;28;20041;-65
2023/12/14 05:29:57;;;;;;;11.83;3.60;;;;;;;4.78;100.00;100590.78;5046375;28;20045;-65
2023/12/14 05:32:22;;;;;;;13.90;4.00;;;;;;;4.76;100.00;100602.91;5046550;28;20040;-65
2023/12/14 05:34:48;;;;;;;15.50;4.60;;;;;;;4.75;100.00;100605.41;5046743;28;20489;-66
2023/12/14 05:37:13;;;;;;;10.33;3.97;;;;;;;4.75;100.00;100611.53;5046072;28;20036;-65
2023/12/14 05:39:41;;;;;;;10.83;4.13;;;;;;;4.77;100.00;100606.41;5044730;28;20147;-65
2023/12/14 05:42:07;;;;;;;11.48;4.32;;;;;;;4.77;100.00;100612.56;5046403;28;20509;-67
2023/12/14 05:44:32;;;;;;;9.67;4.13;;;;;;;4.77;100.00;100614.28;5046913;28;20116;-66
2023/12/14 05:46:58;;;;;;;11.63;3.70;;;;;;;4.79;100.00;100618.75;5046320;28;20120;-68
2023/12/14 05:49:23;;;;;;;14.70;4.60;;;;;;;4.81;100.00;100626.72;5045691;28;20037;-65
2023/12/14 05:51:48;;;;;;;12.40;4.27;;;;;;;4.83;100.00;100635.59;5045998;28;20127;-66
2023/12/14 05:54:14;;;;;;;13.07;4.73;;;;;;;4.83;100.00;100634.69;5046487;28;20033;-65
2023/12/14 05:56:39;;;;;;;12.03;3.93;;;;;;;4.82;100.00;100625.00;5046460;28;20124;-65
2023/12/14 05:59:04;;;;;;;14.37;3.93;;;;;;;4.82;100.00;100635.47;5054951;28;20086;-66
2023/12/14 06:01:30;;;;;;;10.18;3.58;;;;;;;4.82;100.00;100638.09;5042949;28;20044;-65
2023/12/14 06:03:55;;;;;;;11.47;4.30;;;;;;;4.87;100.00;100647.13;5046410;28;20116;-66
2023/12/14 06:06:21;;;;;;;16.30;4.27;;;;;;;4.86;100.00;100648.84;5046591;28;20105;-64
2023/12/14 06:11:08;;;;;;;11.05;4.05;;;;;;;4.85;100.00;100651.34;5008464;28;20356;-68
2023/12/14 06:15:47;;;;;;;11.57;4.50;;;;;;;4.87;100.00;100658.50;5072912;28;20384;-65
2023/12/14 06:18:13;;;;;;;10.23;4.57;;;;;;;4.87;100.00;100660.22;5067825;28;20028;-67
2023/12/14 06:20:40;;;;;;;11.65;4.15;;;;;;;4.89;100.00;100666.44;5067144;28;20037;-64
2023/12/14 06:23:05;;;;;;;12.82;4.35;;;;;;;4.89;100.00;100667.34;5066471;28;20036;-68
2023/12/14 06:25:31;;;;;;;10.13;3.73;;;;;;;4.92;100.00;100671.88;5072732;28;20052;-66
2023/12/14 06:27:56;;;;;;;10.93;4.03;;;;;;;4.92;100.00;100679.72;5067859;28;20045;-64
2023/12/14 06:30:22;;;;;;;11.70;4.13;;;;;;;4.93;100.00;100687.69;5061084;28;20159;-64
2023/12/14 06:32:47;;;;;;;9.60;4.40;;;;;;;4.94;100.00;100676.38;5066843;28;20056;-65
2023/12/14 06:35:12;;;;;;;8.73;3.50;;;;;;;4.97;100.00;100680.91;5066697;28;20116;-64
2023/12/14 06:37:38;;;;;;;9.50;3.70;;;;;;;5.01;100.00;100688.13;5066551;28;20119;-65
2023/12/14 06:40:03;;;;;;;10.30;3.60;;;;;;;5.00;100.00;100686.31;5066036;28;20048;-64
2023/12/14 06:42:30;;;;;;;11.63;4.07;;;;;;;5.01;100.00;100696.00;5066314;28;20060;-65
2023/12/14 06:44:55;;;;;;;12.27;4.47;;;;;;;4.97;100.00;100694.00;5066774;28;20041;-63
2023/12/14 06:47:20;;;;;;;9.00;3.60;;;;;;;4.97;100.00;100701.84;5063464;28;20135;-64
2023/12/14 06:49:46;;;;;;;10.33;3.93;;;;;;;4.98;100.00;100706.28;5065911;28;20108;-65
2023/12/14 06:52:11;;;;;;;12.20;3.83;;;;;;;4.99;100.00;100711.59;5066291;28;20132;-67
2023/12/14 06:54:36;;;;;;;9.17;3.60;;;;;;;5.00;100.00;100712.50;5066086;28;20033;-64
2023/12/14 06:57:02;;;;;;;7.75;2.65;;;;;;;5.03;100.00;100717.94;5065922;28;20116;-65
2023/12/14 06:59:27;;;;;;;11.67;3.30;;;;;;;5.01;100.00;100720.47;5071695;28;20040;-65
2023/12/14 07:04:19;;;;;;;12.18;4.22;;;;;;;5.07;100.00;100735.63;5107845;27;20363;-66
2023/12/14 07:06:51;;;;;;;7.95;3.60;;;;;;;5.06;100.00;100739.06;5107485;28;20039;-66
2023/12/14 07:09:16;;;;;;;11.77;4.07;;;;;;;5.07;100.00;100743.50;5097049;28;20150;-65
2023/12/14 07:11:41;;;;;;;9.70;4.30;;;;;;;5.05;100.00;100742.47;5087172;28;20603;-65
2023/12/14 07:14:07;;;;;;;9.90;3.50;;;;;;;5.09;100.00;100747.09;5086855;28;20111;-64
2023/12/14 07:16:32;;;;;;;10.13;3.90;;;;;;;5.09;100.00;100752.31;5086891;28;20571;-65
2023/12/14 07:18:57;;;;;;;8.37;3.27;;;;;;;5.07;100.00;100759.19;5086361;28;20119;-66
2023/12/14 07:21:23;;;;;;;8.70;3.30;;;;;;;5.03;100.00;100760.69;5086574;28;20484;-66
2023/12/14 07:23:48;;;;;;;9.77;3.40;;;;;;;5.01;100.00;100770.19;5086704;28;20290;-66
2023/12/14 07:26:14;;;;;;;9.13;3.40;;;;;;;5.02;100.00;100774.63;5086784;28;20408;-66
2023/12/14 07:28:39;;;;;;;8.47;3.27;;;;;;;5.03;100.00;100783.38;5086307;28;20108;-66
2023/12/14 07:31:05;;;;;;;10.50;4.03;;;;;;;5.07;100.00;100785.38;5086945;28;20161;-65
2023/12/14 07:33:30;;;;;;;8.07;3.42;;;;;;;5.06;100.00;100797.56;5086697;28;20039;-66
2023/12/14 07:35:55;;;;;;;9.83;3.37;;;;;;;5.09;100.00;100799.44;5086781;28;20060;-67
2023/12/14 07:38:21;;;;;;;8.90;3.40;;;;;;;5.09;100.00;100799.44;5086375;28;20452;-67
2023/12/14 07:40:46;;;;;;;9.27;3.70;;;;;;;5.13;100.00;100806.72;5086114;28;20036;-65
2023/12/14 07:43:12;;;;;;;8.82;3.63;;;;;;;5.15;100.00;100797.22;5085345;28;20504;-66
2023/12/14 07:45:37;;;;;;;7.77;3.47;;;;;;;5.22;100.00;100812.53;5086633;28;20029;-66
2023/12/14 07:48:04;;;;;;;10.07;4.10;;;;;;;5.23;100.00;100814.31;5086452;28;20568;-66
2023/12/14 07:50:29;;;;;;;8.63;3.37;;;;;;;5.25;100.00;100817.94;5086270;28;20040;-68
2023/12/14 07:52:55;;;;;;;10.55;3.67;;;;;;;5.26;100.00;100817.13;5086719;28;20036;-66
2023/12/14 07:55:20;;;;;;;9.73;4.00;;;;;;;5.29;100.00;100824.28;5087277;28;20089;-68
2023/12/14 07:57:46;;;;;;;10.43;4.30;;;;;;;5.32;100.00;100825.38;5091369;28;20289;-67
2023/12/14 08:00:12;;;;;;;10.10;3.63;;;;;;;5.33;100.00;100821.94;5090698;28;20097;-67
2023/12/14 08:02:37;;;;;;;9.55;3.47;;;;;;;5.32;100.00;100837.56;5086065;28;20404;-66
2023/12/14 08:05:04;;;;;;;8.10;3.73;;;;;;;5.29;100.00;100833.03;5086392;28;20028;-66
2023/12/14 08:07:31;;;;;;;12.18;4.15;;;;;;;5.32;100.00;100838.47;5077808;28;20037;-66
2023/12/14 08:09:56;;;;;;;8.75;4.03;;;;;;;5.31;100.00;100836.66;5085613;28;20070;-65
2023/12/14 08:12:22;;;;;;;11.23;4.37;;;;;;;5.30;100.00;100842.69;5086104;28;20052;-67
2023/12/14 08:14:48;;;;;;;10.32;3.80;;;;;;;5.33;100.00;100849.88;5077540;28;20040;-68
2023/12/14 08:17:13;;;;;;;9.00;3.67;;;;;;;5.35;100.00;100849.13;5090700;28;20062;-67
2023/12/14 08:19:38;;;;;;;10.80;4.33;;;;;;;5.31;100.00;100852.38;5079105;28;20036;-67
2023/12/14 08:22:04;;;;;;;9.47;4.70;;;;;;;5.34;100.00;100856.88;5072036;28;20063;-66
2023/12/14 08:24:29;;;;;;;8.63;3.67;;;;;;;5.35;100.00;100866.56;5075988;28;20118;-65
2023/12/14 08:26:55;;;;;;;10.57;4.23;;;;;;;5.34;100.00;100873.50;5092611;28;20107;-66
2023/12/14 08:29:20;;;;;;;7.93;3.63;;;;;;;5.36;100.00;100873.63;5081417;28;20040;-65
2023/12/14 08:31:45;;;;;;;10.13;4.13;;;;;;;5.35;100.00;100866.56;5072522;28;20162;-65
2023/12/14 08:34:11;;;;;;;12.10;4.67;;;;;;;5.38;100.00;100872.88;5072162;28;20032;-66
2023/12/14 08:36:36;;;;;;;10.23;4.55;;;;;;;5.43;100.00;100878.41;5072391;28;20036;-66
2023/12/14 08:39:02;;;;;;;9.53;3.83;;;;;;;5.47;100.00;100883.06;5072011;28;20700;-66
2023/12/14 08:41:27;;;;;;;12.40;6.07;;;;;;;5.46;100.00;100895.25;5072220;28;20052;-65
2023/12/14 08:43:53;;;;;;;14.85;5.25;;;;;;;5.48;100.00;100901.47;5072021;28;20040;-64
2023/12/14 08:46:19;;;;;;;10.33;4.43;;;;;;;5.48;100.00;100893.63;5072217;28;20109;-65
2023/12/14 08:48:44;;;;;;;10.55;4.78;;;;;;;5.49;100.00;100895.44;5071363;28;20028;-66
2023/12/14 08:51:09;;;;;;;12.70;4.97;;;;;;;5.50;100.00;100910.34;5071812;28;20178;-66
2023/12/14 08:53:35;;;;;;;10.40;3.87;;;;;;;5.51;100.00;100904.31;5076350;28;20110;-65
2023/12/14 08:56:02;;;;;;;14.03;5.00;;;;;;;5.47;100.00;100923.28;5092298;28;20057;-65
2023/12/14 08:58:27;;;;;;;12.95;5.43;;;;;;;5.46;100.00;100924.06;5088560;28;20060;-65
2023/12/14 09:00:53;;;;;;;12.83;5.57;;;;;;;5.46;100.00;100925.78;5073955;28;20116;-66
2023/12/14 09:03:19;;;;;;;11.50;5.13;;;;;;;5.52;100.00;100931.41;5071389;28;20493;-65
2023/12/14 09:05:45;;;;;;;13.47;6.13;;;;;;;5.54;100.00;100935.94;5071761;28;20032;-66
2023/12/14 09:08:10;;;;;;;13.93;5.45;;;;;;;5.56;100.00;100934.31;5071232;28;20454;-66
2023/12/14 09:10:36;;;;;;;14.98;5.82;;;;;;;5.59;100.00;100936.22;5071290;28;20036;-66
2023/12/14 09:13:04;;;;;;;12.60;5.20;;;;;;;5.60;100.00;100946.81;5071883;28;20150;-66
2023/12/14 09:15:30;;;;;;;11.95;5.57;;;;;;;5.61;100.00;100947.72;5070069;28;20036;-66
2023/12/14 09:17:55;;;;;;;13.37;5.43;;;;;;;5.64;100.00;100951.44;5071350;28;20046;-66
2023/12/14 09:20:20;;;;;;;14.07;6.65;;;;;;;5.62;100.00;100955.66;5070903;28;20128;-65
2023/12/14 09:22:46;;;;;;;13.73;5.27;;;;;;;5.63;100.00;100954.84;5071103;28;20028;-65
2023/12/14 09:25:12;;;;;;;12.60;5.63;;;;;;;5.60;100.00;100956.38;5070683;28;20400;-66
2023/12/14 09:27:37;;;;;;;14.30;5.15;;;;;;;5.58;100.00;100964.13;5070705;28;20036;-64
2023/12/14 09:30:03;;;;;;;10.37;4.43;;;;;;;5.57;100.00;100975.44;5070227;28;20577;-65
2023/12/14 09:32:28;;;;;;;12.93;5.97;;;;;;;5.50;100.00;100975.84;5070868;28;20032;-66
2023/12/14 09:34:56;;;;;;;17.67;5.80;;;;;;;5.52;100.00;100982.09;5071294;28;20025;-66
2023/12/14 09:37:22;;;;;;;15.10;6.03;;;;;;;5.51;100.00;100982.91;5070928;28;20182;-65
2023/12/14 09:39:47;;;;;;;12.68;5.93;;;;;;;5.49;100.00;100984.50;5070602;28;20119;-65
2023/12/14 09:42:17;;;;;;;13.07;5.80;;;;;;;5.53;100.00;100990.84;5070808;28;20028;-66
2023/12/14 09:44:43;;;;;;;12.05;4.65;;;;;;;5.52;100.00;100995.19;5062408;28;20043;-65
2023/12/14 09:49:23;;;;;;;13.38;5.43;;;;;;;5.45;100.00;101003.44;5066816;28;20368;-66
2023/12/14 09:51:52;;;;;;;15.32;6.00;;;;;;;5.44;100.00;101009.50;5067393;28;20025;-65
2023/12/14 09:54:17;;;;;;;13.60;5.03;;;;;;;5.43;100.00;101007.69;5067355;28;20102;-66
2023/12/14 09:56:47;;;;;;;12.43;6.20;;;;;;;5.40;100.00;101009.19;5067302;28;20637;-65
2023/12/14 09:59:12;;;;;;;14.27;5.35;;;;;;;5.42;100.00;101005.88;5059890;28;20079;-66
2023/12/14 10:01:38;;;;;;;14.77;5.85;;;;;;;5.40;100.00;101010.09;5047203;28;20545;-64
2023/12/14 10:04:17;;;;;;;14.10;5.67;;;;;;;5.45;100.00;101007.78;5047337;28;20499;-65
2023/12/14 10:06:44;;;;;;;13.20;5.75;;;;;;;5.48;100.00;101010.59;5046924;28;20047;-65
2023/12/14 10:09:13;;;;;;;12.50;5.57;;;;;;;5.52;100.00;101015.25;5047149;28;20041;-65
2023/12/14 10:11:42;;;;;;;14.32;5.50;;;;;;;5.54;100.00;101017.16;5067008;28;20101;-66
2023/12/14 10:14:25;;;;;;;16.92;5.82;;;;;;;5.56;100.00;101015.53;5066649;28;20036;-66
2023/12/14 10:16:51;;;;;;;15.57;5.93;;;;;;;5.61;100.00;101021.09;5066513;28;20044;-67
2023/12/14 10:19:17;;;;;;;14.45;6.00;;;;;;;5.62;100.00;101022.91;5066154;28;20033;-66
2023/12/14 10:21:43;;;;;;;14.30;6.13;;;;;;;5.67;100.00;101023.19;5066981;28;20056;-66
2023/12/14 10:24:08;;;;;;;16.67;5.82;;;;;;;5.70;100.00;101015.53;5034416;28;20561;-66
2023/12/14 10:26:34;;;;;;;12.13;5.83;;;;;;;5.69;100.00;101024.19;5040986;28;20029;-67
2023/12/14 10:28:59;;;;;;;17.07;6.77;;;;;;;5.68;100.00;101022.34;5040782;28;20037;-68
2023/12/14 10:31:26;;;;;;;13.33;5.47;;;;;;;5.69;100.00;101021.56;5044897;28;20117;-65
2023/12/14 10:33:52;;;;;;;14.38;6.10;;;;;;;5.68;100.00;101035.47;5046412;28;20040;-67
2023/12/14 10:36:25;;;;;;;15.10;6.22;;;;;;;5.71;100.00;101039.22;5046973;28;20493;-67
2023/12/14 10:38:56;;;;;;;16.60;6.10;;;;;;;5.73;100.00;101055.00;5045762;28;20033;-65
2023/12/14 10:41:22;;;;;;;17.20;7.00;;;;;;;5.73;100.00;101052.38;5046633;28;20421;-66
2023/12/14 10:43:48;;;;;;;16.10;6.63;;;;;;;5.76;100.00;101057.84;5028717;28;20037;-67
2023/12/14 10:46:14;;;;;;;13.77;5.90;;;;;;;5.77;100.00;101054.44;5046319;28;20548;-67
2023/12/14 10:48:43;;;;;;;13.70;5.70;;;;;;;5.78;100.00;101061.47;5045938;28;20067;-67
2023/12/14 10:51:11;;;;;;;14.50;6.65;;;;;;;5.78;100.00;101061.47;5046397;28;20068;-65
2023/12/14 10:53:37;;;;;;;16.70;6.40;;;;;;;5.77;100.00;101067.53;5046303;28;20041;-65
2023/12/14 10:56:07;;;;;;;17.55;6.32;;;;;;;5.77;100.00;101068.44;5046237;28;20044;-68
2023/12/14 10:58:51;;;;;;;14.55;6.65;;;;;;;5.78;100.00;101071.94;5051247;28;20485;-65
2023/12/14 11:01:19;;;;;;;16.00;6.47;;;;;;;5.78;100.00;101074.56;5031492;28;20053;-65
2023/12/14 11:03:46;;;;;;;14.20;5.95;;;;;;;5.78;100.00;101070.22;5032916;28;20026;-65
2023/12/14 11:06:26;;;;;;;17.00;6.15;;;;;;;5.82;100.00;101073.97;5032789;28;20041;-66
2023/12/14 11:08:54;;;;;;;15.25;6.05;;;;;;;5.82;100.00;101073.97;5032145;28;20086;-66
2023/12/14 11:11:20;;;;;;;15.57;6.97;;;;;;;5.84;100.00;101067.09;5032587;28;20036;-66
2023/12/14 11:13:53;;;;;;;12.83;6.47;;;;;;;5.85;100.00;101068.94;5032971;28;20401;-66
2023/12/14 11:16:27;;;;;;;13.80;5.88;;;;;;;5.85;100.00;101071.53;5032782;28;20041;-68
2023/12/14 11:19:20;;;;;;;14.07;6.03;;;;;;;5.85;100.00;101082.94;5032185;28;20033;-65
2023/12/14 11:21:46;;;;;;;12.95;5.90;;;;;;;5.87;100.00;101081.34;5026813;28;20445;-65
2023/12/14 11:24:12;;;;;;;12.90;5.67;;;;;;;5.88;100.00;101087.50;5032492;28;20128;-65
2023/12/14 11:26:37;;;;;;;16.02;5.88;;;;;;;5.91;100.00;101082.47;5032572;28;20030;-66
2023/12/14 11:29:04;;;;;;;16.50;6.13;;;;;;;5.95;100.00;101094.97;5031974;28;20114;-65
2023/12/14 11:31:29;;;;;;;12.00;6.03;;;;;;;5.96;100.00;101095.06;5024132;28;20482;-65